Time;durP1;ratioP1;P1;durP2;ratioP2;P2;SDS_P1;SDS_P2;PMS_P1;PMS_P2;Temp;Humidity;BMP_temperature;BMP_pressure;BME280_temperature;BME280_humidity;BME280_pressure;Samples;Min_cycle;Max_cycle;Signal;HPM_P1;HPM_P2
2022/07/27 00:00:38;;;;;;;8.00;2.63;;;15.80;74.20;;;;;;5067168;28;20028;-74
2022/07/27 00:03:04;;;;;;;6.97;2.47;;;15.80;74.50;;;;;;5075028;28;20478;-75
2022/07/27 00:05:29;;;;;;;7.10;2.63;;;15.80;74.50;;;;;;5069687;28;20127;-75
2022/07/27 00:07:55;;;;;;;6.10;2.30;;;15.80;74.60;;;;;;5056220;28;20116;-74
2022/07/27 00:10:21;;;;;;;5.57;2.58;;;15.80;74.70;;;;;;5060750;28;20047;-76
2022/07/27 00:12:47;;;;;;;7.78;2.42;;;15.80;74.70;;;;;;5062989;28;20291;-74
2022/07/27 00:15:12;;;;;;;7.63;2.33;;;15.80;74.70;;;;;;5059121;28;20077;-74
2022/07/27 00:17:38;;;;;;;6.05;2.35;;;15.90;74.70;;;;;;5056259;28;20063;-76
2022/07/27 00:20:04;;;;;;;7.68;2.70;;;15.90;74.60;;;;;;5058222;28;20128;-75
2022/07/27 00:22:30;;;;;;;10.98;2.97;;;15.90;74.70;;;;;;5061253;28;20040;-74
2022/07/27 00:24:56;;;;;;;7.38;2.50;;;15.80;74.80;;;;;;5060553;28;20047;-77
2022/07/27 00:27:22;;;;;;;7.13;2.40;;;15.80;75.00;;;;;;5060035;28;20037;-75
2022/07/27 00:29:47;;;;;;;6.20;2.80;;;15.90;74.90;;;;;;5062578;28;20033;-75
2022/07/27 00:32:13;;;;;;;8.95;2.97;;;15.90;75.00;;;;;;5060396;28;20045;-75
2022/07/27 00:34:38;;;;;;;7.10;2.75;;;15.90;74.90;;;;;;5059396;28;20400;-75
2022/07/27 00:37:04;;;;;;;5.60;3.00;;;15.80;75.50;;;;;;5061963;28;20450;-74
2022/07/27 00:39:30;;;;;;;7.57;2.90;;;15.80;75.50;;;;;;5061041;28;20548;-74
2022/07/27 00:41:56;;;;;;;8.02;2.60;;;15.80;75.60;;;;;;5066413;28;20072;-74
2022/07/27 00:44:26;;;;;;;5.40;2.33;;;15.80;75.70;;;;;;5066636;28;20116;-75
2022/07/27 00:46:52;;;;;;;7.38;3.03;;;15.80;75.70;;;;;;5060016;28;20048;-77
2022/07/27 00:49:18;;;;;;;7.32;3.13;;;15.80;75.70;;;;;;5060291;28;20033;-74
2022/07/27 00:51:44;;;;;;;9.20;3.38;;;15.80;75.80;;;;;;5060741;28;20914;-74
2022/07/27 00:54:10;;;;;;;6.72;2.67;;;15.90;75.80;;;;;;5061139;28;20033;-75
2022/07/27 00:56:36;;;;;;;5.88;2.33;;;15.90;75.90;;;;;;5056319;28;20602;-74
2022/07/27 00:59:01;;;;;;;8.80;2.95;;;15.80;75.90;;;;;;5063345;28;20033;-75
2022/07/27 01:01:27;;;;;;;7.00;2.78;;;15.80;76.20;;;;;;5056398;28;20044;-77
2022/07/27 01:03:53;;;;;;;7.75;2.83;;;15.80;76.40;;;;;;5060109;28;20388;-74
2022/07/27 01:06:18;;;;;;;5.15;2.72;;;15.80;76.30;;;;;;5060745;28;20041;-75
2022/07/27 01:08:44;;;;;;;5.30;2.70;;;15.70;76.50;;;;;;5060629;28;20044;-75
2022/07/27 01:11:10;;;;;;;7.47;3.10;;;15.70;76.70;;;;;;5050940;28;20156;-75
2022/07/27 01:13:36;;;;;;;7.50;3.13;;;15.70;76.60;;;;;;5058827;28;20036;-74
2022/07/27 01:16:06;;;;;;;7.07;3.10;;;15.70;76.60;;;;;;5059581;28;20438;-74
2022/07/27 01:18:37;;;;;;;10.93;3.65;;;15.80;76.40;;;;;;5058854;28;20124;-75
2022/07/27 01:21:06;;;;;;;8.10;3.08;;;15.70;76.60;;;;;;5060998;28;21005;-75
2022/07/27 01:23:33;;;;;;;9.65;4.32;;;15.70;76.90;;;;;;5063456;28;20062;-75
2022/07/27 01:26:00;;;;;;;6.60;3.30;;;15.60;77.10;;;;;;5059918;28;20045;-77
2022/07/27 01:28:26;;;;;;;7.40;3.83;;;15.60;77.00;;;;;;5060054;28;20067;-76
2022/07/27 01:30:53;;;;;;;10.43;3.85;;;15.70;77.10;;;;;;5058384;28;20037;-74
2022/07/27 01:33:24;;;;;;;7.15;3.08;;;15.60;77.10;;;;;;5059412;28;20039;-74
2022/07/27 01:35:54;;;;;;;9.00;3.40;;;15.60;77.30;;;;;;5064582;28;20036;-75
2022/07/27 01:38:20;;;;;;;8.77;3.17;;;15.70;77.20;;;;;;5056960;28;20044;-75
2022/07/27 01:40:47;;;;;;;7.72;3.35;;;15.70;77.20;;;;;;5059201;28;20396;-74
2022/07/27 01:43:12;;;;;;;7.90;3.55;;;15.60;77.20;;;;;;5062129;28;20151;-73
2022/07/27 01:45:39;;;;;;;7.13;3.10;;;15.60;77.30;;;;;;5060147;28;20746;-76
2022/07/27 01:48:04;;;;;;;7.63;3.20;;;15.60;77.20;;;;;;5056196;28;20116;-74
2022/07/27 01:50:30;;;;;;;9.48;3.70;;;15.60;77.30;;;;;;5063181;28;20033;-75
2022/07/27 01:52:56;;;;;;;8.60;3.72;;;15.60;77.50;;;;;;5054461;28;20044;-76
2022/07/27 01:55:22;;;;;;;8.63;3.90;;;15.60;77.60;;;;;;5065242;28;20068;-75
2022/07/27 01:57:48;;;;;;;8.45;3.42;;;15.60;77.40;;;;;;5058089;28;20415;-74
2022/07/27 02:00:14;;;;;;;6.07;3.00;;;15.60;77.40;;;;;;5060089;28;20029;-75
2022/07/27 02:02:41;;;;;;;6.72;3.55;;;15.60;77.50;;;;;;5061153;28;20044;-75
2022/07/27 02:05:10;;;;;;;8.40;3.92;;;15.60;77.40;;;;;;5060666;28;20045;-74
2022/07/27 02:07:37;;;;;;;8.23;3.45;;;15.60;77.60;;;;;;5060141;28;20032;-74
2022/07/27 02:10:03;;;;;;;8.55;3.47;;;15.60;77.60;;;;;;5057011;28;20369;-75
2022/07/27 02:12:35;;;;;;;8.35;3.90;;;15.60;77.60;;;;;;5056470;28;20048;-74
2022/07/27 02:15:09;;;;;;;7.68;4.05;;;15.60;77.70;;;;;;5060101;28;20038;-75
2022/07/27 02:17:36;;;;;;;7.32;4.05;;;15.60;77.70;;;;;;5050268;28;20024;-75
2022/07/27 02:20:04;;;;;;;10.77;3.85;;;15.50;77.90;;;;;;5057729;28;20033;-75
2022/07/27 02:22:30;;;;;;;6.60;3.28;;;15.50;78.00;;;;;;5061714;28;20044;-75
2022/07/27 02:24:55;;;;;;;9.82;4.15;;;15.50;78.10;;;;;;5059898;28;20041;-76
2022/07/27 02:27:21;;;;;;;7.50;3.47;;;15.50;78.00;;;;;;5062701;28;20092;-75
2022/07/27 02:29:47;;;;;;;8.80;3.95;;;15.40;78.10;;;;;;5058244;28;20033;-75
2022/07/27 02:32:13;;;;;;;8.32;4.07;;;15.30;78.30;;;;;;5055489;28;20497;-74
2022/07/27 02:34:38;;;;;;;7.13;3.45;;;15.30;78.40;;;;;;5059088;28;20032;-75
2022/07/27 02:37:04;;;;;;;9.77;3.67;;;15.20;78.50;;;;;;5055422;28;20047;-76
2022/07/27 02:39:29;;;;;;;6.65;3.42;;;15.20;78.50;;;;;;5059697;28;20472;-75
2022/07/27 02:41:55;;;;;;;8.82;4.00;;;15.10;78.70;;;;;;5062654;28;20059;-75
2022/07/27 02:44:21;;;;;;;10.70;4.32;;;15.10;78.80;;;;;;5060476;28;20136;-77
2022/07/27 02:46:47;;;;;;;9.63;4.25;;;15.10;78.90;;;;;;5062159;28;20037;-74
2022/07/27 02:49:12;;;;;;;7.85;3.90;;;15.00;78.90;;;;;;5060781;28;20024;-74
2022/07/27 02:51:38;;;;;;;6.90;3.60;;;15.00;79.10;;;;;;5064863;28;20532;-76
2022/07/27 02:54:04;;;;;;;6.88;3.70;;;14.90;79.20;;;;;;5061936;28;20514;-74
2022/07/27 02:56:29;;;;;;;9.00;4.20;;;14.90;79.20;;;;;;5052972;28;20455;-75
2022/07/27 02:58:55;;;;;;;6.15;3.67;;;14.90;79.20;;;;;;5059072;28;20033;-75
2022/07/27 03:01:21;;;;;;;10.05;4.43;;;14.90;79.30;;;;;;5061285;28;20035;-75
2022/07/27 03:03:47;;;;;;;7.32;3.83;;;14.80;79.40;;;;;;5055331;28;20071;-75
2022/07/27 03:06:12;;;;;;;9.32;4.30;;;14.80;79.40;;;;;;5054470;28;20071;-75
2022/07/27 03:08:38;;;;;;;6.45;4.25;;;14.80;79.40;;;;;;5060563;28;20111;-75
2022/07/27 03:11:05;;;;;;;8.10;4.38;;;14.80;79.40;;;;;;5058295;28;20102;-75
2022/07/27 03:13:31;;;;;;;7.95;4.07;;;14.70;79.60;;;;;;5058388;28;20055;-75
2022/07/27 03:15:57;;;;;;;10.55;4.80;;;14.60;79.90;;;;;;5061004;28;20039;-74
2022/07/27 03:18:23;;;;;;;8.48;4.03;;;14.60;79.90;;;;;;5055213;28;20036;-75
2022/07/27 03:20:49;;;;;;;6.85;4.30;;;14.60;80.20;;;;;;5057336;28;20225;-74
2022/07/27 03:23:16;;;;;;;6.18;4.15;;;14.50;80.30;;;;;;5057811;28;20560;-75
2022/07/27 03:25:42;;;;;;;10.05;4.22;;;14.50;80.40;;;;;;5055775;28;20101;-77
2022/07/27 03:28:07;;;;;;;8.18;4.90;;;14.50;80.50;;;;;;5061689;28;20033;-75
2022/07/27 03:30:33;;;;;;;10.00;4.72;;;14.40;80.50;;;;;;5062854;28;20470;-75
2022/07/27 03:32:59;;;;;;;7.93;4.30;;;14.40;80.50;;;;;;5059921;28;20474;-76
2022/07/27 03:35:25;;;;;;;9.23;4.45;;;14.40;80.60;;;;;;5060909;28;20041;-75
2022/07/27 03:37:51;;;;;;;7.50;4.05;;;14.40;80.50;;;;;;5063120;28;20164;-75
2022/07/27 03:40:17;;;;;;;6.05;3.88;;;14.40;80.40;;;;;;5066282;28;20032;-75
2022/07/27 03:42:43;;;;;;;7.00;3.60;;;14.30;80.30;;;;;;5061130;28;20131;-76
2022/07/27 03:45:09;;;;;;;8.45;3.88;;;14.30;80.10;;;;;;5063602;28;20033;-76
2022/07/27 03:47:35;;;;;;;8.55;4.15;;;14.30;80.10;;;;;;5064248;28;20056;-75
2022/07/27 03:50:01;;;;;;;8.18;3.75;;;14.30;80.00;;;;;;5061476;28;20916;-75
2022/07/27 03:52:26;;;;;;;9.18;3.63;;;14.20;80.10;;;;;;5064260;28;20131;-77
2022/07/27 03:54:52;;;;;;;8.85;4.15;;;14.10;80.00;;;;;;5068305;28;20535;-76
2022/07/27 03:57:18;;;;;;;9.05;4.05;;;14.10;80.10;;;;;;5072132;28;20028;-74
2022/07/27 03:59:43;;;;;;;6.70;4.13;;;14.10;80.10;;;;;;5058727;28;20554;-75
2022/07/27 04:02:09;;;;;;;9.55;4.65;;;14.10;80.10;;;;;;5058072;28;20028;-76
2022/07/27 04:04:34;;;;;;;12.00;4.65;;;14.10;80.30;;;;;;5062709;28;20422;-75
2022/07/27 04:07:00;;;;;;;7.50;4.32;;;14.00;80.50;;;;;;5061993;28;20044;-74
2022/07/27 04:09:27;;;;;;;9.00;3.75;;;14.00;80.40;;;;;;5061423;28;20538;-75
2022/07/27 04:11:53;;;;;;;8.68;4.45;;;14.00;80.70;;;;;;5064237;28;20079;-75
2022/07/27 04:14:18;;;;;;;6.40;3.90;;;14.00;80.50;;;;;;5062171;28;20119;-75
2022/07/27 04:16:44;;;;;;;8.27;4.68;;;13.90;80.60;;;;;;5061837;28;20040;-75
2022/07/27 04:19:09;;;;;;;7.30;4.13;;;13.90;80.60;;;;;;5060684;28;20105;-77
2022/07/27 04:21:35;;;;;;;7.03;4.15;;;13.90;80.90;;;;;;5061093;28;20032;-75
2022/07/27 04:24:01;;;;;;;6.97;4.43;;;14.00;80.60;;;;;;5061785;28;20128;-75
2022/07/27 04:26:27;;;;;;;8.50;4.72;;;14.00;80.40;;;;;;5058935;28;20127;-75
2022/07/27 04:28:53;;;;;;;7.97;4.57;;;13.90;80.20;;;;;;5059083;28;20068;-77
2022/07/27 04:31:18;;;;;;;10.02;4.25;;;13.90;80.20;;;;;;5063012;28;20650;-77
2022/07/27 04:33:44;;;;;;;8.07;4.20;;;13.90;80.40;;;;;;5071647;28;20547;-78
2022/07/27 04:36:10;;;;;;;9.25;4.85;;;13.80;80.50;;;;;;5074358;28;20769;-77
2022/07/27 04:38:35;;;;;;;6.88;3.90;;;13.90;80.40;;;;;;5060093;28;20099;-75
2022/07/27 04:41:01;;;;;;;8.32;4.43;;;13.90;80.20;;;;;;5064421;28;20039;-74
2022/07/27 04:43:27;;;;;;;7.50;4.25;;;14.00;80.20;;;;;;5058905;28;20143;-75
2022/07/27 04:45:52;;;;;;;8.55;4.50;;;14.00;80.00;;;;;;5062569;28;20067;-75
2022/07/27 04:48:18;;;;;;;10.20;5.20;;;14.00;80.00;;;;;;5061730;28;20503;-75
2022/07/27 04:50:46;;;;;;;8.85;4.40;;;14.10;80.00;;;;;;5063907;28;20522;-75
2022/07/27 04:53:13;;;;;;;8.40;4.80;;;14.10;80.00;;;;;;5061484;28;20556;-75
2022/07/27 04:55:43;;;;;;;8.13;4.55;;;14.10;79.80;;;;;;5062883;28;20032;-75
2022/07/27 04:58:08;;;;;;;10.02;4.70;;;14.10;79.60;;;;;;5063205;28;20041;-75
2022/07/27 05:00:34;;;;;;;8.00;4.72;;;14.10;79.60;;;;;;5055205;28;20041;-78
2022/07/27 05:03:00;;;;;;;7.43;4.40;;;14.20;79.50;;;;;;5057034;28;20139;-77
2022/07/27 05:05:26;;;;;;;8.77;4.95;;;14.30;79.40;;;;;;5056820;28;20522;-74
2022/07/27 05:07:51;;;;;;;7.75;4.20;;;14.30;79.50;;;;;;5056658;28;20434;-75
2022/07/27 05:10:17;;;;;;;11.70;4.50;;;14.40;79.30;;;;;;5063996;28;20514;-76
2022/07/27 05:12:43;;;;;;;10.52;4.80;;;14.50;79.30;;;;;;5065018;28;20468;-75
2022/07/27 05:15:09;;;;;;;8.85;4.30;;;14.60;79.20;;;;;;5062909;28;20395;-77
2022/07/27 05:17:35;;;;;;;9.98;5.10;;;14.60;79.10;;;;;;5054870;28;20048;-77
2022/07/27 05:20:01;;;;;;;7.88;4.53;;;14.70;79.00;;;;;;5058057;28;20037;-76
2022/07/27 05:22:27;;;;;;;8.32;4.53;;;14.70;78.90;;;;;;5059744;28;20491;-76
2022/07/27 05:24:52;;;;;;;8.68;4.93;;;14.80;78.80;;;;;;5059409;28;20045;-76
2022/07/27 05:27:18;;;;;;;10.52;4.80;;;15.10;79.10;;;;;;5058204;28;20058;-78
2022/07/27 05:29:44;;;;;;;7.57;4.40;;;16.50;76.60;;;;;;5061398;28;20415;-75
2022/07/27 05:32:09;;;;;;;8.57;3.97;;;18.20;70.70;;;;;;5058595;28;20500;-75
2022/07/27 05:34:35;;;;;;;7.88;3.92;;;19.80;65.30;;;;;;5059893;28;20477;-75
2022/07/27 05:37:01;;;;;;;8.77;3.60;;;21.10;60.20;;;;;;5062881;28;20067;-78
2022/07/27 05:39:27;;;;;;;5.65;3.10;;;21.90;56.10;;;;;;5061536;28;20067;-75
2022/07/27 05:41:53;;;;;;;6.50;3.20;;;22.70;54.60;;;;;;5060196;28;20551;-75
2022/07/27 05:44:18;;;;;;;5.45;2.70;;;23.40;52.30;;;;;;5059132;28;20045;-78
2022/07/27 05:46:44;;;;;;;7.97;3.28;;;23.90;50.10;;;;;;5058134;28;20040;-76
2022/07/27 05:49:10;;;;;;;7.28;2.92;;;23.60;50.30;;;;;;5060416;28;20468;-76
2022/07/27 05:51:37;;;;;;;5.90;3.53;;;22.40;52.30;;;;;;5057933;28;20119;-76
2022/07/27 05:54:02;;;;;;;7.38;3.25;;;21.40;55.20;;;;;;5062949;28;20040;-75
2022/07/27 05:56:28;;;;;;;5.45;2.83;;;21.50;55.80;;;;;;5058241;28;20060;-75
2022/07/27 05:58:54;;;;;;;7.78;3.13;;;21.70;55.50;;;;;;5062556;28;20151;-75
2022/07/27 06:01:19;;;;;;;10.32;3.58;;;21.80;54.70;;;;;;5063203;28;20036;-78
2022/07/27 06:03:45;;;;;;;7.28;3.28;;;22.00;53.90;;;;;;5064990;28;20093;-76
2022/07/27 06:08:55;;;;;;;7.75;3.50;;;21.00;57.10;;;;;;5057550;28;20039;-76
2022/07/27 06:11:21;;;;;;;7.95;3.58;;;20.00;59.80;;;;;;5061621;28;20041;-76
2022/07/27 06:13:47;;;;;;;8.55;3.47;;;19.40;62.30;;;;;;5057508;28;20330;-77
2022/07/27 06:16:12;;;;;;;6.20;3.42;;;19.00;63.50;;;;;;5062660;28;20052;-78
2022/07/27 06:18:38;;;;;;;7.18;3.75;;;18.40;65.20;;;;;;5059407;28;20106;-75
2022/07/27 06:21:04;;;;;;;7.43;3.50;;;18.30;66.20;;;;;;5060201;28;20541;-76
2022/07/27 06:23:30;;;;;;;8.25;3.63;;;18.20;67.30;;;;;;5057942;28;20044;-76
2022/07/27 06:25:56;;;;;;;7.38;3.60;;;18.00;67.30;;;;;;5059816;28;20032;-77
2022/07/27 06:28:22;;;;;;;7.88;4.10;;;17.70;68.60;;;;;;5056329;28;20037;-77
2022/07/27 06:30:48;;;;;;;9.10;3.72;;;17.70;69.00;;;;;;5066323;28;20040;-75
2022/07/27 06:33:14;;;;;;;7.15;2.80;;;17.80;69.00;;;;;;5059038;28;20565;-76
2022/07/27 06:35:40;;;;;;;8.15;2.85;;;17.90;68.00;;;;;;5062652;28;20285;-76
2022/07/27 06:38:07;;;;;;;5.43;2.72;;;18.10;68.10;;;;;;5059970;28;20043;-76
2022/07/27 06:40:33;;;;;;;7.75;3.28;;;18.20;68.10;;;;;;5059093;28;20032;-76
2022/07/27 06:42:59;;;;;;;6.38;3.00;;;18.40;67.10;;;;;;5062353;28;20036;-76
2022/07/27 06:45:25;;;;;;;4.78;2.60;;;18.60;66.90;;;;;;5062839;28;20052;-77
2022/07/27 06:47:51;;;;;;;6.88;2.28;;;18.70;66.70;;;;;;5056087;28;20040;-76
2022/07/27 06:50:19;;;;;;;7.95;2.20;;;18.80;65.70;;;;;;5060921;28;20051;-77
2022/07/27 06:52:45;;;;;;;5.07;1.90;;;19.00;64.80;;;;;;5058278;28;20892;-76
2022/07/27 06:55:12;;;;;;;7.05;1.98;;;19.10;64.70;;;;;;5060014;28;20047;-76
2022/07/27 06:57:37;;;;;;;4.45;1.50;;;18.90;64.40;;;;;;5070142;28;20472;-76
2022/07/27 07:00:05;;;;;;;4.47;1.70;;;18.90;64.30;;;;;;5063162;28;20044;-76
2022/07/27 07:02:31;;;;;;;4.95;1.55;;;19.20;64.30;;;;;;5061424;28;20028;-77
2022/07/27 07:04:57;;;;;;;5.72;1.67;;;19.30;63.30;;;;;;5055460;28;20510;-77
2022/07/27 07:07:23;;;;;;;3.97;1.40;;;19.00;62.20;;;;;;5064106;28;20076;-76
2022/07/27 07:09:49;;;;;;;4.60;1.65;;;19.10;62.50;;;;;;5059366;28;20131;-77
2022/07/27 07:12:17;;;;;;;7.47;1.70;;;19.00;63.60;;;;;;5059659;28;20072;-76
2022/07/27 07:14:43;;;;;;;4.18;1.58;;;19.10;63.10;;;;;;5055835;28;20629;-78
2022/07/27 07:17:09;;;;;;;6.55;1.92;;;19.20;62.20;;;;;;5061031;28;20041;-77
2022/07/27 07:19:34;;;;;;;4.13;1.40;;;19.10;62.20;;;;;;5058042;28;20073;-78
2022/07/27 07:22:00;;;;;;;4.25;1.50;;;19.10;63.40;;;;;;5058598;28;20122;-77
2022/07/27 07:24:28;;;;;;;5.13;1.77;;;19.30;62.80;;;;;;5059657;28;20395;-76
2022/07/27 07:26:53;;;;;;;5.72;1.58;;;19.20;62.60;;;;;;5059607;28;20680;-77
2022/07/27 07:29:20;;;;;;;4.05;1.60;;;19.10;63.20;;;;;;5056499;28;20344;-76
2022/07/27 07:31:45;;;;;;;5.38;1.42;;;19.40;62.00;;;;;;5058974;28;20032;-76
2022/07/27 07:34:11;;;;;;;3.90;1.25;;;19.70;61.50;;;;;;5057317;28;20036;-75
2022/07/27 07:36:36;;;;;;;5.45;1.50;;;19.50;60.50;;;;;;5055328;28;20126;-75
2022/07/27 07:39:02;;;;;;;6.07;1.48;;;19.90;61.30;;;;;;5062648;28;20032;-76
2022/07/27 07:41:31;;;;;;;4.38;1.40;;;20.10;59.40;;;;;;5059926;28;20487;-74
2022/07/27 07:43:57;;;;;;;6.47;1.20;;;20.40;57.60;;;;;;5062402;28;20125;-75
2022/07/27 07:46:22;;;;;;;3.58;1.40;;;20.40;56.90;;;;;;5060172;28;20541;-76
2022/07/27 07:48:48;;;;;;;5.00;1.30;;;20.10;57.20;;;;;;5059281;28;20107;-76
2022/07/27 07:51:14;;;;;;;5.00;1.10;;;20.20;57.70;;;;;;5062811;28;20123;-76
2022/07/27 07:53:39;;;;;;;4.43;1.10;;;20.40;57.90;;;;;;5056722;28;20420;-76
2022/07/27 07:56:05;;;;;;;3.05;1.20;;;20.10;56.90;;;;;;5056948;28;20044;-77
2022/07/27 07:58:31;;;;;;;2.38;1.10;;;19.90;57.50;;;;;;5056380;28;20179;-78
2022/07/27 08:00:56;;;;;;;4.07;1.40;;;19.90;56.90;;;;;;5058587;28;20040;-75
2022/07/27 08:03:22;;;;;;;1.95;1.13;;;20.10;58.00;;;;;;5056907;28;20036;-74
2022/07/27 08:05:48;;;;;;;2.97;1.02;;;19.80;57.60;;;;;;5062824;28;20159;-75
2022/07/27 08:08:14;;;;;;;4.93;1.20;;;19.60;57.60;;;;;;5057706;28;20605;-77
2022/07/27 08:10:39;;;;;;;3.67;1.27;;;19.90;58.30;;;;;;5060281;28;20041;-74
2022/07/27 08:13:05;;;;;;;5.72;1.20;;;20.00;56.30;;;;;;5060253;28;20141;-76
2022/07/27 08:15:31;;;;;;;5.90;1.30;;;19.90;56.80;;;;;;5067000;28;20140;-76
2022/07/27 08:17:56;;;;;;;2.42;1.10;;;19.70;57.60;;;;;;5066409;28;20126;-77
2022/07/27 08:20:24;;;;;;;3.30;1.10;;;19.80;57.10;;;;;;5059992;28;20123;-75
2022/07/27 08:22:50;;;;;;;5.88;1.40;;;19.70;56.60;;;;;;5060649;28;20021;-74
2022/07/27 08:25:16;;;;;;;4.18;1.50;;;19.90;56.60;;;;;;5055757;28;20041;-76
2022/07/27 08:27:41;;;;;;;7.55;1.63;;;19.90;56.20;;;;;;5060629;28;20041;-75
2022/07/27 08:30:09;;;;;;;3.38;1.20;;;19.90;56.20;;;;;;5066080;28;20036;-74
2022/07/27 08:32:53;;;;;;;4.05;1.20;;;19.80;56.50;;;;;;5059689;28;20119;-74
2022/07/27 08:35:20;;;;;;;3.70;1.10;;;20.20;56.50;;;;;;5058366;28;20048;-75
2022/07/27 08:37:46;;;;;;;5.30;1.13;;;20.40;54.50;;;;;;5062159;28;20032;-75
2022/07/27 08:40:13;;;;;;;4.65;1.50;;;20.40;55.40;;;;;;5064053;28;20126;-75
2022/07/27 08:42:41;;;;;;;3.00;1.20;;;20.30;56.10;;;;;;5059813;28;20075;-76
2022/07/27 08:45:09;;;;;;;7.93;1.60;;;20.20;54.80;;;;;;5064658;28;20083;-76
2022/07/27 08:47:37;;;;;;;3.30;1.50;;;20.20;55.10;;;;;;5063914;28;20040;-76
2022/07/27 08:50:04;;;;;;;2.60;1.10;;;20.50;52.80;;;;;;5080773;28;20036;-74
2022/07/27 08:52:30;;;;;;;4.85;1.42;;;20.60;51.70;;;;;;5063553;28;20041;-74
2022/07/27 08:54:55;;;;;;;4.28;1.27;;;20.50;52.00;;;;;;5060529;28;20029;-76
2022/07/27 08:57:21;;;;;;;4.63;1.20;;;20.30;52.20;;;;;;5061052;28;20072;-74
2022/07/27 08:59:47;;;;;;;5.47;1.23;;;20.10;52.20;;;;;;5064435;28;20336;-77
2022/07/27 09:02:13;;;;;;;1.73;0.93;;;20.10;51.90;;;;;;5058436;28;20025;-73
2022/07/27 09:04:40;;;;;;;2.33;1.00;;;20.30;49.40;;;;;;5070407;28;20092;-74
2022/07/27 09:07:05;;;;;;;1.65;1.00;;;20.60;49.60;;;;;;5058650;28;20048;-72
2022/07/27 09:09:44;;;;;;;3.63;0.95;;;20.80;49.60;;;;;;5058795;28;20488;-73
2022/07/27 09:12:10;;;;;;;5.70;1.40;;;21.00;49.60;;;;;;5057076;28;20144;-75
2022/07/27 09:14:38;;;;;;;2.58;1.13;;;21.30;48.80;;;;;;5061013;28;20040;-77
2022/07/27 09:17:34;;;;;;;4.32;1.38;;;21.80;47.90;;;;;;5060617;28;20159;-74
2022/07/27 09:20:03;;;;;;;3.65;1.20;;;22.30;47.20;;;;;;5055903;28;20539;-74
2022/07/27 09:22:53;;;;;;;3.83;1.73;;;22.10;47.70;;;;;;5057926;28;20036;-76
2022/07/27 09:25:24;;;;;;;4.18;1.20;;;21.60;47.90;;;;;;5063908;28;20040;-75
2022/07/27 09:27:54;;;;;;;3.92;1.25;;;21.80;47.60;;;;;;5057664;28;20417;-73
2022/07/27 09:30:20;;;;;;;4.70;1.30;;;21.80;47.70;;;;;;5062343;28;20028;-75
2022/07/27 09:32:56;;;;;;;4.18;1.17;;;22.20;46.30;;;;;;5058064;28;20036;-75
2022/07/27 09:35:32;;;;;;;4.30;1.20;;;22.10;45.50;;;;;;5061617;28;20376;-76
2022/07/27 09:38:17;;;;;;;3.35;1.38;;;21.10;47.90;;;;;;5057539;28;20407;-76
2022/07/27 09:40:42;;;;;;;3.55;1.17;;;20.90;49.10;;;;;;5066705;28;20031;-73
2022/07/27 09:43:12;;;;;;;5.03;1.33;;;21.30;49.20;;;;;;5057224;28;20543;-73
2022/07/27 09:45:42;;;;;;;4.65;1.40;;;21.80;50.10;;;;;;5063836;28;20036;-75
2022/07/27 09:48:15;;;;;;;4.05;1.40;;;22.20;48.20;;;;;;5056042;28;20036;-73
2022/07/27 09:50:44;;;;;;;2.53;1.10;;;22.50;47.60;;;;;;5060248;28;20032;-75
2022/07/27 09:53:19;;;;;;;5.28;1.10;;;22.80;46.50;;;;;;5055054;28;20480;-73
2022/07/27 09:55:57;;;;;;;3.70;1.10;;;23.10;44.60;;;;;;5058404;28;20051;-74
2022/07/27 09:58:41;;;;;;;1.40;1.00;;;23.30;44.60;;;;;;5062733;28;20033;-73
2022/07/27 10:01:12;;;;;;;;;;;23.00;44.50;;;;;;5059155;28;20032;-73
2022/07/27 10:03:39;;;;;;;4.10;1.40;;;22.70;44.30;;;;;;5058409;28;19912;-75
2022/07/27 10:06:07;;;;;;;3.97;1.15;;;23.10;45.50;;;;;;5057039;28;20048;-73
2022/07/27 10:08:34;;;;;;;4.45;1.30;;;23.00;44.80;;;;;;5060395;28;20063;-72
2022/07/27 10:11:00;;;;;;;2.58;1.17;;;22.60;45.10;;;;;;5059947;28;20059;-73
2022/07/27 10:13:26;;;;;;;5.03;1.48;;;22.60;45.90;;;;;;5059022;28;20460;-72
2022/07/27 10:15:53;;;;;;;2.88;1.20;;;22.40;45.30;;;;;;5058804;28;20020;-74
2022/07/27 10:18:28;;;;;;;4.47;1.10;;;21.80;46.10;;;;;;5062385;28;20066;-74
2022/07/27 10:20:56;;;;;;;4.38;1.40;;;22.00;47.50;;;;;;5061624;28;20119;-75
2022/07/27 10:23:28;;;;;;;3.50;1.20;;;22.40;46.00;;;;;;5061921;28;20044;-75
2022/07/27 10:26:13;;;;;;;3.80;1.30;;;22.50;47.60;;;;;;5055041;28;20150;-77
2022/07/27 10:28:52;;;;;;;4.50;1.40;;;22.30;46.50;;;;;;5058218;28;20040;-74
2022/07/27 10:31:19;;;;;;;3.78;1.40;;;22.10;46.10;;;;;;5060153;28;20451;-73
2022/07/27 10:33:56;;;;;;;3.22;1.10;;;22.40;46.80;;;;;;5060953;28;20024;-75
2022/07/27 10:36:21;;;;;;;2.97;1.20;;;23.10;44.40;;;;;;5063194;28;20045;-75
2022/07/27 10:38:55;;;;;;;2.38;1.00;;;23.30;43.00;;;;;;5060827;28;20040;-76
2022/07/27 10:41:25;;;;;;;3.70;1.40;;;23.30;43.90;;;;;;5056284;28;20046;-75
2022/07/27 10:44:17;;;;;;;3.38;1.30;;;23.00;43.80;;;;;;5059405;28;20086;-73
2022/07/27 10:46:42;;;;;;;4.00;1.30;;;22.50;44.10;;;;;;5047421;28;20360;-76
2022/07/27 10:49:17;;;;;;;4.43;1.20;;;22.70;45.00;;;;;;5054034;28;20475;-73
2022/07/27 10:51:43;;;;;;;2.67;1.42;;;22.60;45.10;;;;;;5058449;28;20203;-73
2022/07/27 10:54:35;;;;;;;3.67;1.30;;;22.10;45.60;;;;;;5061465;28;20364;-73
2022/07/27 10:57:04;;;;;;;5.20;1.30;;;22.10;45.70;;;;;;5055184;28;20048;-75
2022/07/27 10:59:38;;;;;;;4.53;1.52;;;22.60;45.00;;;;;;5059984;28;20041;-75
2022/07/27 11:02:06;;;;;;;7.93;1.70;;;22.80;45.40;;;;;;5056248;28;20451;-74
2022/07/27 11:04:33;;;;;;;2.63;1.10;;;22.50;46.20;;;;;;5063701;28;20036;-74
2022/07/27 11:07:00;;;;;;;5.53;1.30;;;22.60;44.80;;;;;;5059059;28;20044;-73
2022/07/27 11:09:40;;;;;;;3.42;1.45;;;22.60;44.80;;;;;;5058077;28;20123;-73
2022/07/27 11:12:10;;;;;;;7.40;1.70;;;22.50;46.20;;;;;;5060257;28;20025;-75
2022/07/27 11:14:49;;;;;;;5.70;1.58;;;22.00;46.80;;;;;;5060993;28;20048;-72
2022/07/27 11:17:20;;;;;;;3.42;1.27;;;21.40;48.20;;;;;;5050045;28;20079;-73
2022/07/27 11:19:59;;;;;;;4.95;1.55;;;21.20;48.30;;;;;;5057431;28;20036;-74
2022/07/27 11:22:43;;;;;;;4.25;1.83;;;21.20;48.80;;;;;;5054118;28;20469;-74
2022/07/27 11:25:08;;;;;;;6.00;2.00;;;21.40;47.70;;;;;;5056464;28;20114;-74
2022/07/27 11:27:49;;;;;;;5.90;2.30;;;21.50;48.30;;;;;;5057737;28;20230;-74
2022/07/27 11:30:26;;;;;;;3.47;1.33;;;22.00;46.80;;;;;;5061332;28;20025;-73
2022/07/27 11:32:52;;;;;;;3.05;1.48;;;22.40;46.40;;;;;;5055480;28;20052;-75
2022/07/27 11:35:18;;;;;;;3.95;1.40;;;22.80;44.00;;;;;;5054138;28;20025;-75
2022/07/27 11:38:00;;;;;;;7.15;1.42;;;23.50;44.70;;;;;;5057989;28;20049;-72
2022/07/27 11:40:26;;;;;;;3.78;1.60;;;24.10;41.90;;;;;;5060861;28;20044;-72
2022/07/27 11:42:52;;;;;;;2.90;1.63;;;24.20;41.90;;;;;;5065573;28;20045;-72
2022/07/27 11:45:28;;;;;;;4.10;1.30;;;23.50;42.90;;;;;;5057784;28;20052;-73
2022/07/27 11:47:57;;;;;;;5.20;1.17;;;22.80;44.00;;;;;;5058269;28;20497;-74
2022/07/27 11:50:23;;;;;;;6.35;1.30;;;22.70;45.40;;;;;;5062083;28;20144;-74
2022/07/27 11:52:56;;;;;;;4.28;1.30;;;22.30;45.80;;;;;;5061700;28;20027;-74
2022/07/27 11:55:22;;;;;;;4.25;1.70;;;22.30;46.40;;;;;;5065224;28;20040;-73
2022/07/27 11:57:48;;;;;;;4.25;1.60;;;22.30;46.10;;;;;;5060920;28;20473;-74
2022/07/27 12:00:13;;;;;;;4.63;1.52;;;22.60;45.20;;;;;;5061838;28;20025;-74
2022/07/27 12:02:48;;;;;;;4.25;1.58;;;22.80;46.40;;;;;;5060673;28;20048;-75
2022/07/27 12:05:13;;;;;;;6.63;1.48;;;22.80;45.40;;;;;;5063890;28;20549;-74
2022/07/27 12:07:40;;;;;;;5.07;2.10;;;23.10;45.80;;;;;;5063405;28;20039;-77
2022/07/27 12:10:07;;;;;;;6.38;1.60;;;23.40;44.10;;;;;;5065407;28;20090;-75
2022/07/27 12:12:35;;;;;;;5.07;1.50;;;23.30;44.00;;;;;;5061300;28;20112;-74
2022/07/27 12:15:01;;;;;;;4.75;1.42;;;23.10;43.90;;;;;;5070351;28;20031;-76
2022/07/27 12:17:30;;;;;;;4.22;1.60;;;23.40;43.30;;;;;;5062817;28;20041;-75
2022/07/27 12:20:00;;;;;;;6.25;2.28;;;23.20;44.40;;;;;;5063966;28;20093;-75
2022/07/27 12:22:38;;;;;;;4.68;1.83;;;23.40;43.50;;;;;;5062766;28;20040;-76
2022/07/27 12:25:09;;;;;;;4.13;1.60;;;23.30;45.40;;;;;;5057025;28;20033;-73
2022/07/27 12:27:36;;;;;;;7.63;1.95;;;23.50;43.00;;;;;;5064165;28;20037;-75
2022/07/27 12:30:11;;;;;;;3.97;1.40;;;22.80;43.60;;;;;;5059439;28;20032;-74
2022/07/27 12:32:44;;;;;;;4.68;1.70;;;22.40;44.80;;;;;;5059497;28;20036;-76
2022/07/27 12:35:21;;;;;;;4.38;1.60;;;22.70;44.70;;;;;;5061858;28;20043;-74
2022/07/27 12:37:47;;;;;;;4.80;1.70;;;23.10;42.70;;;;;;5060291;28;20051;-74
2022/07/27 12:40:15;;;;;;;3.25;1.92;;;23.00;43.60;;;;;;5060600;28;20078;-74
2022/07/27 12:42:41;;;;;;;6.53;2.22;;;23.20;43.60;;;;;;5060656;28;20033;-76
2022/07/27 12:45:15;;;;;;;5.85;1.70;;;23.10;42.50;;;;;;5068193;28;20036;-77
2022/07/27 12:47:42;;;;;;;4.28;1.90;;;22.70;44.00;;;;;;5066105;28;20039;-75
2022/07/27 12:50:16;;;;;;;5.65;2.05;;;23.10;42.90;;;;;;5061253;28;20139;-77